createdAt,value
2023-04-15T00:01:11.742Z,11.52
2023-04-15T00:03:38.774Z,8.70
2023-04-15T00:06:06.062Z,11.15
2023-04-15T00:08:33.273Z,13.32
2023-04-15T00:11:03.148Z,11.85
2023-04-15T00:13:29.985Z,9.70
2023-04-15T00:15:56.761Z,12.90
2023-04-15T00:18:24.321Z,13.13
2023-04-15T00:20:51.087Z,13.35
2023-04-15T00:23:18.034Z,12.90
2023-04-15T00:25:44.949Z,9.05
2023-04-15T00:28:11.634Z,10.45
2023-04-15T00:30:38.933Z,11.90
2023-04-15T00:33:05.865Z,8.40
2023-04-15T00:35:32.821Z,11.57
2023-04-15T00:37:59.888Z,10.10
2023-04-15T00:40:27.754Z,14.80
2023-04-15T00:42:54.482Z,8.50
2023-04-15T00:45:21.318Z,13.13
2023-04-15T00:47:48.295Z,8.25
2023-04-15T00:50:15.038Z,10.88
2023-04-15T00:52:41.860Z,11.38
2023-04-15T00:55:09.806Z,11.52
2023-04-15T00:57:36.962Z,12.07
2023-04-15T01:00:05.712Z,12.45
2023-04-15T01:02:33.327Z,10.95
2023-04-15T01:05:02.533Z,10.32
2023-04-15T01:07:29.361Z,12.82
2023-04-15T01:09:56.065Z,10.90
2023-04-15T01:12:23.199Z,11.85
2023-04-15T01:14:50.007Z,7.38
2023-04-15T01:17:17.736Z,9.60
2023-04-15T01:19:44.442Z,10.88
2023-04-15T01:22:11.363Z,12.35
2023-04-15T01:24:38.543Z,11.18
2023-04-15T01:27:05.684Z,12.30
2023-04-15T01:29:35.694Z,10.80
2023-04-15T01:32:02.386Z,11.82
2023-04-15T01:34:47.763Z,10.40
2023-04-15T01:37:33.126Z,10.52
2023-04-15T01:39:59.778Z,7.30
2023-04-15T01:42:27.626Z,13.13
2023-04-15T01:44:55.764Z,10.38
2023-04-15T01:47:23.805Z,13.73
2023-04-15T01:49:51.817Z,10.68
2023-04-15T01:52:19.787Z,10.05
2023-04-15T01:54:47.802Z,8.02
2023-04-15T01:57:15.815Z,12.23
2023-04-15T01:59:43.810Z,10.10
2023-04-15T02:02:12.546Z,12.07
2023-04-15T02:04:40.567Z,10.48
2023-04-15T02:07:08.691Z,11.68
2023-04-15T02:09:36.815Z,12.57
2023-04-15T02:12:04.814Z,13.23
2023-04-15T02:14:32.797Z,12.40
2023-04-15T02:17:07.240Z,10.00
2023-04-15T02:19:35.785Z,11.13
2023-04-15T02:22:04.740Z,10.85
2023-04-15T02:24:33.361Z,8.02
2023-04-15T02:27:02.186Z,10.68
2023-04-15T02:29:32.243Z,9.63
2023-04-15T02:32:02.149Z,7.97
2023-04-15T02:34:31.458Z,7.07
2023-04-15T02:36:59.469Z,6.07
2023-04-15T02:39:27.610Z,9.27
2023-04-15T02:41:55.721Z,7.20
2023-04-15T02:44:24.909Z,10.82
2023-04-15T02:46:56.744Z,9.52
2023-04-15T02:49:25.243Z,7.22
2023-04-15T02:51:53.428Z,7.43
2023-04-15T02:54:26.061Z,10.05
2023-04-15T02:56:56.099Z,10.10
2023-04-15T02:59:24.193Z,8.40
2023-04-15T03:01:52.449Z,9.02
2023-04-15T03:04:20.510Z,7.03
2023-04-15T03:06:48.520Z,11.75
2023-04-15T03:09:16.654Z,5.75
2023-04-15T03:11:44.878Z,11.85
2023-04-15T03:14:12.855Z,10.52
2023-04-15T03:16:44.342Z,4.97
2023-04-15T03:19:14.431Z,10.10
2023-04-15T03:21:44.315Z,9.93
2023-04-15T03:24:12.351Z,8.30
2023-04-15T03:26:40.393Z,6.05
2023-04-15T03:29:14.088Z,6.10
2023-04-15T03:31:42.511Z,9.77
2023-04-15T03:34:10.552Z,7.72
2023-04-15T03:36:38.772Z,7.53
2023-04-15T03:39:06.692Z,6.60
2023-04-15T03:41:34.643Z,8.13
2023-04-15T03:44:02.678Z,8.93
2023-04-15T03:46:30.712Z,9.80
2023-04-15T03:48:59.087Z,7.50
2023-04-15T03:51:27.554Z,6.35
2023-04-15T03:53:56.044Z,7.30
2023-04-15T03:56:24.096Z,8.77
2023-04-15T03:58:52.002Z,7.70
2023-04-15T04:01:19.908Z,5.72
2023-04-15T04:03:48.170Z,12.77
2023-04-15T04:06:16.837Z,7.18
2023-04-15T04:08:44.800Z,7.13
2023-04-15T04:11:12.937Z,7.45
2023-04-15T04:13:41.025Z,6.22
2023-04-15T04:16:09.000Z,7.70
2023-04-15T04:18:36.966Z,7.70
2023-04-15T04:21:05.357Z,6.95
2023-04-15T04:23:33.346Z,9.60
2023-04-15T04:26:01.282Z,6.45
2023-04-15T04:28:29.315Z,6.22
2023-04-15T04:30:57.246Z,6.47
2023-04-15T04:33:25.214Z,6.65
2023-04-15T04:35:53.075Z,8.23
2023-04-15T04:38:21.066Z,9.13
2023-04-15T04:40:49.072Z,7.97
2023-04-15T04:43:17.041Z,7.22
2023-04-15T04:45:45.026Z,6.18
2023-04-15T04:48:13.060Z,6.13
2023-04-15T04:50:41.152Z,7.97
2023-04-15T04:53:09.077Z,7.30
2023-04-15T04:55:37.039Z,8.05
2023-04-15T04:58:04.972Z,10.82
2023-04-15T05:00:33.020Z,10.27
2023-04-15T05:03:01.224Z,7.75
2023-04-15T05:05:29.421Z,7.72
2023-04-15T05:07:57.383Z,8.02
2023-04-15T05:10:25.343Z,10.15
2023-04-15T05:12:53.278Z,10.70
2023-04-15T05:15:21.463Z,9.65
2023-04-15T05:17:49.433Z,9.32
2023-04-15T05:20:17.472Z,13.18
2023-04-15T05:22:45.382Z,27.33
2023-04-15T05:25:13.950Z,14.18
2023-04-15T05:27:42.098Z,6.60
2023-04-15T05:30:11.626Z,8.57
2023-04-15T05:32:41.562Z,7.88
2023-04-15T05:35:09.705Z,6.68
2023-04-15T05:37:37.644Z,9.38
2023-04-15T05:40:06.161Z,5.75
2023-04-15T05:42:35.040Z,10.18
2023-04-15T05:45:05.453Z,9.20
2023-04-15T05:47:33.498Z,7.35
2023-04-15T05:50:01.589Z,14.95
2023-04-15T05:52:29.521Z,8.48
2023-04-15T05:54:57.482Z,13.32
2023-04-15T05:57:25.708Z,13.35
2023-04-15T05:59:53.774Z,14.75
2023-04-15T06:02:22.146Z,10.52
2023-04-15T06:04:50.136Z,15.85
2023-04-15T06:07:18.150Z,9.65
2023-04-15T06:09:46.096Z,10.10
2023-04-15T06:12:14.214Z,9.32
2023-04-15T06:14:42.185Z,9.88
2023-04-15T06:17:10.306Z,9.70
2023-04-15T06:19:38.555Z,8.00
2023-04-15T06:22:07.280Z,13.07
2023-04-15T06:24:36.991Z,12.02
2023-04-15T06:27:04.937Z,12.32
2023-04-15T06:29:32.862Z,9.43
2023-04-15T06:32:01.025Z,8.65
2023-04-15T06:34:28.941Z,10.35
2023-04-15T06:36:57.458Z,10.50
2023-04-15T06:39:25.576Z,9.43
2023-04-15T06:41:53.565Z,10.20
2023-04-15T06:44:22.907Z,11.20
2023-04-15T06:46:50.894Z,9.25
2023-04-15T06:49:18.809Z,10.35
2023-04-15T06:51:46.817Z,13.60
2023-04-15T06:54:14.793Z,11.75
2023-04-15T06:56:42.996Z,8.88
2023-04-15T06:59:10.909Z,8.10
2023-04-15T07:01:38.806Z,12.63
2023-04-15T07:04:06.963Z,9.00
2023-04-15T07:06:35.688Z,8.25
2023-04-15T07:09:05.426Z,8.20
2023-04-15T07:11:33.802Z,10.73
2023-04-15T07:14:01.750Z,9.55
2023-04-15T07:16:30.188Z,11.07
2023-04-15T07:18:58.316Z,10.73
2023-04-15T07:21:27.542Z,8.93
2023-04-15T07:23:55.606Z,9.50
2023-04-15T07:26:23.633Z,11.02
2023-04-15T07:28:51.559Z,8.75
2023-04-15T07:31:19.565Z,11.55
2023-04-15T07:33:47.612Z,8.98
2023-04-15T07:36:15.544Z,8.18
2023-04-15T07:38:43.501Z,8.57
2023-04-15T07:41:12.058Z,8.48
2023-04-15T07:43:39.987Z,9.38
2023-04-15T07:46:08.303Z,9.98
2023-04-15T07:48:56.124Z,10.38
2023-04-15T07:51:27.246Z,7.60
2023-04-15T07:53:55.163Z,9.73
2023-04-15T07:56:23.147Z,11.32
2023-04-15T07:58:51.537Z,11.48
2023-04-15T08:01:19.500Z,16.02
2023-04-15T08:03:48.589Z,9.70
2023-04-15T08:06:16.811Z,8.52
2023-04-15T08:08:44.735Z,9.60
2023-04-15T08:11:13.034Z,12.57
2023-04-15T08:13:41.046Z,8.65
2023-04-15T08:16:25.338Z,9.80
2023-04-15T08:18:55.416Z,14.07
2023-04-15T08:21:24.505Z,9.48
2023-04-15T08:23:53.720Z,8.38
2023-04-15T08:26:22.165Z,14.23
2023-04-15T08:28:50.385Z,16.15
2023-04-15T08:31:18.982Z,13.05
2023-04-15T08:33:46.942Z,10.32
2023-04-15T08:36:15.012Z,11.70
2023-04-15T08:38:44.292Z,9.73
2023-04-15T08:41:18.635Z,10.35
2023-04-15T08:43:53.636Z,12.55
2023-04-15T08:46:21.939Z,9.80
2023-04-15T08:48:50.028Z,12.80
2023-04-15T08:51:18.637Z,13.73
2023-04-15T08:53:47.453Z,11.65
2023-04-15T08:56:18.730Z,10.38
2023-04-15T08:58:46.850Z,8.48
2023-04-15T09:01:15.109Z,12.20
2023-04-15T09:03:44.209Z,14.45
2023-04-15T09:06:12.278Z,10.25
2023-04-15T09:08:40.318Z,8.98
2023-04-15T09:11:08.393Z,10.15
2023-04-15T09:13:36.586Z,9.68
2023-04-15T09:16:05.998Z,10.93
2023-04-15T09:18:35.634Z,5.55
2023-04-15T09:21:08.861Z,6.00
2023-04-15T09:26:10.098Z,10.25
2023-04-15T09:28:42.430Z,8.70
2023-04-15T09:31:11.215Z,9.27
2023-04-15T09:33:58.711Z,10.02
2023-04-15T09:36:29.914Z,6.97
2023-04-15T09:38:58.895Z,11.50
2023-04-15T09:41:27.356Z,8.82
2023-04-15T09:43:55.380Z,9.55
2023-04-15T09:46:44.246Z,8.35
2023-04-15T09:49:12.945Z,10.13
2023-04-15T09:51:42.217Z,6.20
2023-04-15T09:54:12.715Z,6.68
2023-04-15T09:56:43.669Z,8.55
2023-04-15T09:59:12.039Z,13.73
2023-04-15T10:01:41.134Z,8.35
2023-04-15T10:04:09.231Z,8.70
2023-04-15T10:06:37.703Z,11.07
2023-04-15T10:09:06.577Z,8.68
2023-04-15T10:11:35.213Z,16.27
2023-04-15T10:14:04.237Z,11.15
2023-04-15T10:16:33.368Z,13.50
2023-04-15T10:19:02.204Z,8.25
2023-04-15T10:21:30.752Z,11.77
2023-04-15T10:23:58.657Z,9.05
2023-04-15T10:26:26.699Z,12.75
2023-04-15T10:28:54.589Z,11.00
2023-04-15T10:31:23.139Z,10.23
2023-04-15T10:33:51.447Z,8.48
2023-04-15T10:36:20.100Z,7.63
2023-04-15T10:38:48.054Z,7.57
2023-04-15T10:41:34.593Z,6.18
2023-04-15T10:44:04.979Z,7.90
2023-04-15T10:46:44.300Z,5.03
2023-04-15T10:49:14.463Z,6.22
2023-04-15T10:51:49.298Z,8.00
2023-04-15T10:54:31.423Z,4.90
2023-04-15T10:57:02.665Z,5.75
2023-04-15T10:59:31.228Z,6.88
2023-04-15T11:02:04.490Z,4.20
2023-04-15T11:04:51.429Z,4.35
2023-04-15T11:07:47.194Z,5.00
2023-04-15T11:10:17.730Z,5.15
2023-04-15T11:12:46.559Z,5.43
2023-04-15T11:15:31.010Z,7.35
2023-04-15T11:18:09.428Z,2.65
2023-04-15T11:20:38.372Z,4.63
2023-04-15T11:23:13.802Z,7.10
2023-04-15T11:25:43.643Z,4.03
2023-04-15T11:28:13.258Z,5.32
2023-04-15T11:30:42.831Z,5.88
2023-04-15T11:33:14.840Z,3.58
2023-04-15T11:35:43.385Z,4.18
2023-04-15T11:38:13.641Z,5.72
2023-04-15T11:40:45.331Z,3.63
2023-04-15T11:43:15.955Z,3.55
2023-04-15T11:45:58.011Z,3.53
2023-04-15T11:48:28.732Z,1.63
2023-04-15T11:51:01.854Z,2.47
2023-04-15T11:53:48.603Z,4.93
2023-04-15T11:56:24.206Z,3.53
2023-04-15T11:58:59.497Z,4.30
2023-04-15T12:01:36.836Z,2.88
2023-04-15T12:04:14.341Z,5.80
2023-04-15T12:06:41.570Z,4.30
2023-04-15T12:09:15.612Z,3.20
2023-04-15T12:11:55.595Z,5.70
2023-04-15T12:14:25.952Z,2.55
2023-04-15T12:16:54.629Z,2.72
2023-04-15T12:19:41.860Z,3.15
2023-04-15T12:22:13.802Z,2.40
2023-04-15T12:24:41.125Z,4.00
2023-04-15T12:27:17.456Z,3.05
2023-04-15T12:29:44.450Z,1.95
2023-04-15T12:32:13.146Z,2.22
2023-04-15T12:34:44.687Z,1.65
2023-04-15T12:37:13.181Z,2.40
2023-04-15T12:39:44.837Z,1.98
2023-04-15T12:42:12.592Z,2.20
2023-04-15T12:44:40.052Z,4.43
2023-04-15T12:47:07.660Z,1.60
2023-04-15T12:49:34.680Z,4.18
2023-04-15T12:52:02.451Z,2.65
2023-04-15T12:54:30.156Z,2.85
2023-04-15T12:56:57.613Z,1.67
2023-04-15T12:59:25.630Z,2.53
2023-04-15T13:01:53.440Z,3.67
2023-04-15T13:04:20.788Z,1.35
2023-04-15T13:06:47.963Z,1.83
2023-04-15T13:09:15.528Z,3.78
2023-04-15T13:11:42.516Z,2.47
2023-04-15T13:14:16.075Z,2.25
2023-04-15T13:16:46.033Z,1.83
2023-04-15T13:19:15.992Z,2.63
2023-04-15T13:21:42.965Z,1.85
2023-04-15T13:24:09.919Z,1.63
2023-04-15T13:26:36.711Z,4.60
2023-04-15T13:29:07.077Z,2.03
2023-04-15T13:31:34.138Z,2.35
2023-04-15T13:36:33.959Z,4.18
2023-04-15T13:39:00.905Z,2.47
2023-04-15T13:41:27.576Z,2.22
2023-04-15T13:43:54.497Z,4.72
2023-04-15T13:46:21.422Z,4.72
2023-04-15T13:48:48.143Z,4.82
2023-04-15T13:51:15.473Z,2.55
2023-04-15T13:53:42.303Z,3.33
2023-04-15T13:56:10.268Z,2.33
2023-04-15T13:58:37.643Z,3.08
2023-04-15T14:01:06.089Z,2.63
2023-04-15T14:03:34.378Z,1.77
2023-04-15T14:06:01.453Z,4.00
2023-04-15T14:08:28.163Z,1.90
2023-04-15T14:10:54.859Z,2.03
2023-04-15T14:13:21.833Z,3.78
2023-04-15T14:15:48.624Z,3.40
2023-04-15T14:18:15.347Z,1.80
2023-04-15T14:20:42.181Z,2.70
2023-04-15T14:23:09.213Z,2.70
2023-04-15T14:25:36.125Z,4.20
2023-04-15T14:28:03.497Z,3.75
2023-04-15T14:30:30.673Z,3.40
2023-04-15T14:32:57.615Z,3.35
2023-04-15T14:35:26.495Z,3.67
2023-04-15T14:37:54.009Z,2.33
2023-04-15T14:40:20.790Z,2.33
2023-04-15T14:42:47.557Z,4.57
2023-04-15T14:45:14.364Z,4.78
2023-04-15T14:47:41.185Z,3.72
2023-04-15T14:50:08.382Z,3.70
2023-04-15T14:52:38.796Z,4.47
2023-04-15T14:55:10.314Z,2.63
2023-04-15T14:57:39.861Z,1.75
2023-04-15T15:00:07.856Z,2.92
2023-04-15T15:05:04.870Z,1.52
2023-04-15T15:07:31.709Z,1.77
2023-04-15T15:09:58.550Z,1.67
2023-04-15T15:12:25.521Z,4.40
2023-04-15T15:14:52.620Z,1.33
2023-04-15T15:17:19.336Z,1.50
2023-04-15T15:19:46.143Z,1.73
2023-04-15T15:22:12.878Z,1.17
2023-04-15T15:24:39.578Z,1.23
2023-04-15T15:27:06.376Z,3.45
2023-04-15T15:29:33.023Z,1.50
2023-04-15T15:31:59.771Z,1.55
2023-04-15T15:34:26.608Z,2.05
2023-04-15T15:36:55.125Z,1.15
2023-04-15T15:39:23.085Z,1.45
2023-04-15T15:41:50.532Z,1.92
2023-04-15T15:44:17.441Z,1.25
2023-04-15T15:46:44.292Z,2.08
2023-04-15T15:49:11.280Z,2.20
2023-04-15T15:51:38.031Z,1.00
2023-04-15T15:54:04.768Z,0.80
2023-04-15T15:56:31.535Z,1.20
2023-04-15T15:58:58.646Z,0.70
2023-04-15T16:01:26.705Z,0.73
2023-04-15T16:03:54.031Z,0.93
2023-04-15T16:06:21.031Z,0.70
2023-04-15T16:08:47.884Z,0.90
2023-04-15T16:11:14.857Z,0.95
2023-04-15T16:13:41.626Z,1.33
2023-04-15T16:16:08.531Z,0.80
2023-04-15T16:18:35.514Z,1.17
2023-04-15T16:21:02.259Z,2.15
2023-04-15T16:23:29.356Z,1.15
2023-04-15T16:25:56.256Z,0.50
2023-04-15T16:28:26.938Z,1.02
2023-04-15T16:30:55.052Z,0.50
2023-04-15T16:33:21.753Z,1.38
2023-04-15T16:35:48.485Z,1.85
2023-04-15T16:38:15.647Z,1.73
2023-04-15T16:40:42.526Z,0.43
2023-04-15T16:43:11.204Z,1.02
2023-04-15T16:45:38.576Z,0.60
2023-04-15T16:48:05.748Z,0.70
2023-04-15T16:50:32.535Z,0.90
2023-04-15T16:52:59.337Z,1.50
2023-04-15T16:55:26.220Z,0.77
2023-04-15T16:58:02.909Z,1.10
2023-04-15T17:00:31.671Z,0.77
2023-04-15T17:02:59.495Z,1.08
2023-04-15T17:05:30.524Z,0.50
2023-04-15T17:07:57.508Z,2.28
2023-04-15T17:10:24.341Z,0.82
2023-04-15T17:12:52.221Z,1.20
2023-04-15T17:15:20.625Z,0.68
2023-04-15T17:17:52.523Z,0.70
2023-04-15T17:20:19.613Z,0.85
2023-04-15T17:22:46.574Z,1.23
2023-04-15T17:25:14.720Z,0.75
2023-04-15T17:27:46.125Z,1.58
2023-04-15T17:30:17.451Z,3.50
2023-04-15T17:33:57.504Z,1.30
2023-04-15T17:36:11.199Z,1.00
2023-04-15T17:38:57.834Z,1.33
2023-04-15T17:41:44.464Z,1.58
2023-04-15T17:44:31.157Z,1.15
2023-04-15T17:47:17.914Z,1.45
2023-04-15T17:50:04.757Z,1.70
2023-04-15T17:52:51.510Z,1.30
2023-04-15T17:55:39.247Z,1.45
2023-04-15T17:58:27.429Z,2.20
2023-04-15T18:01:14.054Z,2.55
2023-04-15T18:04:00.926Z,2.13
2023-04-15T18:06:47.607Z,1.70
2023-04-15T18:09:34.292Z,1.77
2023-04-15T18:12:24.017Z,2.13
2023-04-15T18:15:11.423Z,2.33
2023-04-15T18:18:01.054Z,3.78
2023-04-15T18:20:28.098Z,3.30
2023-04-15T18:22:55.712Z,3.85
2023-04-15T18:25:22.461Z,1.92
2023-04-15T18:27:49.433Z,2.75
2023-04-15T18:30:16.173Z,1.85
2023-04-15T18:32:43.654Z,2.20
2023-04-15T18:35:10.598Z,2.38
2023-04-15T18:37:38.988Z,4.15
2023-04-15T18:40:07.585Z,2.65
2023-04-15T18:42:40.261Z,4.15
2023-04-15T18:45:18.277Z,3.88
2023-04-15T18:47:45.283Z,14.10
2023-04-15T18:50:12.467Z,6.35
2023-04-15T18:52:39.362Z,3.13
2023-04-15T18:55:06.560Z,3.33
2023-04-15T18:57:35.261Z,3.97
2023-04-15T19:00:02.882Z,3.30
2023-04-15T19:02:31.144Z,5.13
2023-04-15T19:04:58.075Z,4.68
2023-04-15T19:07:24.962Z,6.45
2023-04-15T19:09:52.169Z,4.88
2023-04-15T19:12:19.174Z,5.40
2023-04-15T19:14:46.061Z,4.72
2023-04-15T19:17:12.764Z,9.55
2023-04-15T19:19:39.695Z,4.50
2023-04-15T19:22:07.283Z,3.90
2023-04-15T19:24:34.130Z,6.57
2023-04-15T19:27:01.645Z,4.97
2023-04-15T19:29:28.825Z,4.35
2023-04-15T19:31:56.091Z,5.15
2023-04-15T19:34:23.109Z,5.07
2023-04-15T19:36:50.127Z,5.47
2023-04-15T19:39:17.561Z,6.18
2023-04-15T19:41:44.873Z,5.18
2023-04-15T19:44:14.451Z,5.13
2023-04-15T19:46:43.637Z,6.43
2023-04-15T19:49:10.850Z,5.15
2023-04-15T19:51:37.678Z,4.90
2023-04-15T19:54:04.541Z,6.35
2023-04-15T19:56:34.517Z,5.82
2023-04-15T19:59:02.273Z,3.95
2023-04-15T20:01:29.435Z,4.35
2023-04-15T20:03:56.486Z,3.90
2023-04-15T20:06:23.954Z,4.95
2023-04-15T20:08:51.841Z,3.55
2023-04-15T20:11:18.893Z,4.15
2023-04-15T20:13:45.723Z,4.47
2023-04-15T20:16:12.997Z,3.88
2023-04-15T20:18:39.956Z,3.30
2023-04-15T20:21:06.841Z,5.20
2023-04-15T20:23:35.956Z,3.63
2023-04-15T20:26:05.164Z,4.80
2023-04-15T20:28:32.132Z,3.53
2023-04-15T20:31:00.796Z,3.20
2023-04-15T20:33:27.710Z,3.53
2023-04-15T20:35:54.732Z,4.25
2023-04-15T20:38:21.865Z,3.47
2023-04-15T20:40:48.687Z,4.47
2023-04-15T20:43:18.384Z,5.93
2023-04-15T20:45:45.514Z,4.32
2023-04-15T20:48:12.538Z,4.68
2023-04-15T20:50:39.393Z,5.50
2023-04-15T20:53:06.230Z,4.63
2023-04-15T20:55:32.984Z,4.82
2023-04-15T20:57:59.686Z,4.00
2023-04-15T21:00:26.515Z,3.58
2023-04-15T21:02:53.471Z,5.97
2023-04-15T21:05:20.449Z,5.40
2023-04-15T21:07:47.273Z,5.85
2023-04-15T21:10:14.001Z,5.13
2023-04-15T21:12:41.134Z,3.95
2023-04-15T21:15:08.709Z,6.97
2023-04-15T21:17:35.749Z,7.47
2023-04-15T21:20:02.559Z,4.80
2023-04-15T21:22:29.523Z,6.10
2023-04-15T21:24:56.204Z,5.15
2023-04-15T21:27:22.983Z,7.53
2023-04-15T21:29:49.722Z,6.43
2023-04-15T21:32:16.568Z,7.43
2023-04-15T21:34:43.412Z,5.22
2023-04-15T21:37:10.295Z,5.53
2023-04-15T21:39:37.015Z,7.50
2023-04-15T21:42:03.773Z,6.05
2023-04-15T21:44:30.861Z,4.53
2023-04-15T21:46:57.626Z,4.65
2023-04-15T21:49:25.538Z,6.85
2023-04-15T21:51:52.352Z,7.47
2023-04-15T21:54:19.233Z,6.80
2023-04-15T21:56:47.621Z,6.05
2023-04-15T21:59:14.380Z,5.47
2023-04-15T22:01:41.108Z,5.40
2023-04-15T22:04:08.154Z,7.45
2023-04-15T22:06:34.937Z,6.38
2023-04-15T22:09:01.639Z,6.28
2023-04-15T22:11:30.249Z,6.65
2023-04-15T22:13:57.913Z,6.00
2023-04-15T22:16:27.811Z,8.23
2023-04-15T22:18:55.319Z,7.45
2023-04-15T22:21:22.262Z,9.13
2023-04-15T22:23:49.442Z,12.00
2023-04-15T22:26:16.299Z,8.73
2023-04-15T22:28:43.583Z,12.30
2023-04-15T22:31:10.457Z,10.05
2023-04-15T22:33:37.350Z,10.98
2023-04-15T22:36:04.028Z,8.68
2023-04-15T22:38:30.905Z,12.88
2023-04-15T22:40:58.168Z,11.75
2023-04-15T22:43:25.875Z,14.85
2023-04-15T22:45:54.696Z,10.07
2023-04-15T22:48:21.510Z,14.18
2023-04-15T22:50:48.550Z,14.18
2023-04-15T22:53:16.633Z,16.55
2023-04-15T22:55:47.277Z,16.38
2023-04-15T22:58:15.064Z,16.60
2023-04-15T23:00:41.872Z,20.75
2023-04-15T23:03:08.746Z,19.70
2023-04-15T23:05:35.755Z,15.98
2023-04-15T23:08:03.268Z,19.13
2023-04-15T23:10:30.041Z,21.30
2023-04-15T23:12:56.807Z,23.63
2023-04-15T23:15:23.655Z,21.33
2023-04-15T23:17:50.482Z,21.05
2023-04-15T23:20:17.269Z,21.90
2023-04-15T23:22:44.131Z,22.48
2023-04-15T23:25:10.886Z,24.17
2023-04-15T23:27:37.703Z,21.13
2023-04-15T23:30:04.982Z,21.02
2023-04-15T23:32:31.726Z,24.90
2023-04-15T23:34:58.442Z,20.83
2023-04-15T23:37:25.177Z,22.23
2023-04-15T23:39:52.448Z,24.50
2023-04-15T23:42:19.269Z,20.15
2023-04-15T23:44:46.064Z,27.92
2023-04-15T23:47:12.751Z,23.52
2023-04-15T23:49:40.907Z,25.25
2023-04-15T23:52:07.932Z,24.73
2023-04-15T23:54:34.883Z,26.67
2023-04-15T23:57:01.787Z,24.48
2023-04-15T23:59:28.556Z,22.92
